createdAt,value
2022-12-20T00:02:07.361Z,6.50
2022-12-20T00:04:35.567Z,6.50
2022-12-20T00:07:03.734Z,6.50
2022-12-20T00:09:31.879Z,6.50
2022-12-20T00:12:00.430Z,6.50
2022-12-20T00:14:29.904Z,6.50
2022-12-20T00:16:58.034Z,6.40
2022-12-20T00:19:26.132Z,6.40
2022-12-20T00:21:54.254Z,6.40
2022-12-20T00:24:26.017Z,6.40
2022-12-20T00:26:54.673Z,6.40
2022-12-20T00:29:22.762Z,6.50
2022-12-20T00:31:52.387Z,6.50
2022-12-20T00:34:21.101Z,6.50
2022-12-20T00:36:49.200Z,6.50
2022-12-20T00:39:17.348Z,6.50
2022-12-20T00:41:45.441Z,6.50
2022-12-20T00:44:13.711Z,6.50
2022-12-20T00:46:41.898Z,6.50
2022-12-20T00:49:11.661Z,6.40
2022-12-20T00:51:39.795Z,6.40
2022-12-20T00:54:10.963Z,6.40
2022-12-20T00:56:42.077Z,6.40
2022-12-20T00:59:10.226Z,6.40
2022-12-20T01:01:38.490Z,6.50
2022-12-20T01:04:06.826Z,6.50
2022-12-20T01:06:36.331Z,6.50
2022-12-20T01:09:05.027Z,6.50
2022-12-20T01:11:34.050Z,6.50
2022-12-20T01:14:03.614Z,6.50
2022-12-20T01:16:32.994Z,6.50
2022-12-20T01:19:01.556Z,6.50
2022-12-20T01:21:29.827Z,6.50
2022-12-20T01:23:59.366Z,6.40
2022-12-20T01:26:29.151Z,6.50
2022-12-20T01:28:58.651Z,6.50
2022-12-20T01:31:27.111Z,6.50
2022-12-20T01:33:55.264Z,6.50
2022-12-20T01:36:25.235Z,6.50
2022-12-20T01:38:57.244Z,6.50
2022-12-20T01:41:26.704Z,6.50
2022-12-20T01:43:55.550Z,6.50
2022-12-20T01:46:24.370Z,6.60
2022-12-20T01:48:53.931Z,6.50
2022-12-20T01:53:50.143Z,6.40
2022-12-20T01:56:18.255Z,6.50
2022-12-20T01:58:47.700Z,6.50
2022-12-20T02:01:15.862Z,6.50
2022-12-20T02:03:44.377Z,6.50
2022-12-20T02:06:17.023Z,6.50
2022-12-20T02:08:45.276Z,6.50
2022-12-20T02:11:20.289Z,6.50
2022-12-20T02:13:52.705Z,6.60
2022-12-20T02:16:24.011Z,6.60
2022-12-20T02:18:53.973Z,6.50
2022-12-20T02:21:28.959Z,6.50
2022-12-20T02:24:37.875Z,6.40
2022-12-20T02:27:47.621Z,6.40
2022-12-20T02:30:17.594Z,6.40
2022-12-20T02:32:51.765Z,6.50
2022-12-20T02:35:24.316Z,6.50
2022-12-20T02:37:53.396Z,6.50
2022-12-20T02:40:23.924Z,6.50
2022-12-20T02:42:53.157Z,6.50
2022-12-20T02:45:22.888Z,6.50
2022-12-20T02:47:52.047Z,6.50
2022-12-20T02:50:22.966Z,6.50
2022-12-20T02:52:51.254Z,6.50
2022-12-20T02:55:19.500Z,6.50
2022-12-20T02:57:56.101Z,6.50
2022-12-20T03:00:29.291Z,6.50
2022-12-20T03:03:15.222Z,6.50
2022-12-20T03:05:45.594Z,6.50
2022-12-20T03:08:13.778Z,6.50
2022-12-20T03:10:41.901Z,6.50
2022-12-20T03:13:09.994Z,6.50
2022-12-20T03:15:39.515Z,6.50
2022-12-20T03:18:08.695Z,6.50
2022-12-20T03:20:36.850Z,6.60
2022-12-20T03:23:04.988Z,6.60
2022-12-20T03:25:33.130Z,6.50
2022-12-20T03:28:01.199Z,6.50
2022-12-20T03:30:29.293Z,6.50
2022-12-20T03:32:59.215Z,6.50
2022-12-20T03:35:27.327Z,6.50
2022-12-20T03:37:55.731Z,6.50
2022-12-20T03:40:23.868Z,6.50
2022-12-20T03:42:52.026Z,6.50
2022-12-20T03:45:20.179Z,6.60
2022-12-20T03:47:48.759Z,6.50
2022-12-20T03:50:18.326Z,6.60
2022-12-20T03:52:46.557Z,6.60
2022-12-20T03:55:14.659Z,6.50
2022-12-20T03:57:43.116Z,6.50
2022-12-20T04:00:13.513Z,6.50
2022-12-20T04:02:41.766Z,6.50
2022-12-20T04:05:10.307Z,6.50
2022-12-20T04:07:39.802Z,6.50
2022-12-20T04:10:09.495Z,6.50
2022-12-20T04:12:37.614Z,6.60
2022-12-20T04:15:06.408Z,6.50
2022-12-20T04:17:34.491Z,6.50
2022-12-20T04:20:19.050Z,6.50
2022-12-20T04:22:48.715Z,6.60
2022-12-20T04:25:17.451Z,6.50
2022-12-20T04:27:45.544Z,6.50
2022-12-20T04:30:14.305Z,6.50
2022-12-20T04:32:42.407Z,6.50
2022-12-20T04:35:11.035Z,6.40
2022-12-20T04:37:39.280Z,6.40
2022-12-20T04:40:10.591Z,6.40
2022-12-20T04:42:38.671Z,6.50
2022-12-20T04:45:07.519Z,6.50
2022-12-20T04:47:35.608Z,6.50
2022-12-20T04:50:03.692Z,6.50
2022-12-20T04:52:49.360Z,6.50
2022-12-20T04:55:19.412Z,6.50
2022-12-20T04:57:47.497Z,6.60
2022-12-20T05:00:17.329Z,6.50
2022-12-20T05:02:45.629Z,6.50
2022-12-20T05:05:14.198Z,6.50
2022-12-20T05:07:42.289Z,6.50
2022-12-20T05:10:11.171Z,6.50
2022-12-20T05:12:41.028Z,6.50
2022-12-20T05:15:10.218Z,6.50
2022-12-20T05:17:38.312Z,6.50
2022-12-20T05:20:07.952Z,6.50
2022-12-20T05:22:53.286Z,6.50
2022-12-20T05:25:38.578Z,6.50
2022-12-20T05:28:08.065Z,6.60
2022-12-20T05:30:36.165Z,6.50
2022-12-20T05:33:04.444Z,6.50
2022-12-20T05:35:32.578Z,6.50
2022-12-20T05:38:01.268Z,6.50
2022-12-20T05:40:29.384Z,6.50
2022-12-20T05:42:57.508Z,6.50
2022-12-20T05:45:27.162Z,6.50
2022-12-20T05:47:55.293Z,6.50
2022-12-20T05:50:23.422Z,6.50
2022-12-20T05:52:51.622Z,6.50
2022-12-20T05:55:20.043Z,6.50
2022-12-20T05:57:48.098Z,6.50
2022-12-20T06:00:16.830Z,6.60
2022-12-20T06:02:47.156Z,6.50
2022-12-20T06:05:17.626Z,6.50
2022-12-20T06:07:45.685Z,6.50
2022-12-20T06:10:13.778Z,6.50
2022-12-20T06:12:41.872Z,6.50
2022-12-20T06:15:10.996Z,6.50
2022-12-20T06:17:39.113Z,6.50
2022-12-20T06:20:09.964Z,6.50
2022-12-20T06:22:38.781Z,6.50
2022-12-20T06:25:09.293Z,6.60
2022-12-20T06:27:37.519Z,6.60
2022-12-20T06:30:06.317Z,6.60
2022-12-20T06:32:34.365Z,6.50
2022-12-20T06:35:02.411Z,6.50
2022-12-20T06:37:32.381Z,6.50
2022-12-20T06:40:00.886Z,6.50
2022-12-20T06:42:28.955Z,6.50
2022-12-20T06:44:57.020Z,6.50
2022-12-20T06:47:25.169Z,6.50
2022-12-20T06:49:53.196Z,6.50
2022-12-20T06:52:21.486Z,6.50
2022-12-20T06:54:50.913Z,6.50
2022-12-20T06:57:19.480Z,6.50
2022-12-20T06:59:47.489Z,6.50
2022-12-20T07:02:15.872Z,6.50
2022-12-20T07:04:49.667Z,6.60
2022-12-20T07:07:18.336Z,6.50
2022-12-20T07:09:46.482Z,6.50
2022-12-20T07:12:15.868Z,6.50
2022-12-20T07:14:43.948Z,6.40
2022-12-20T07:17:12.125Z,6.50
2022-12-20T07:19:43.051Z,6.50
2022-12-20T07:22:15.340Z,6.50
2022-12-20T07:24:43.910Z,6.50
2022-12-20T07:27:12.083Z,6.50
2022-12-20T07:29:42.164Z,6.50
2022-12-20T07:32:10.394Z,6.50
2022-12-20T07:34:38.547Z,6.60
2022-12-20T07:37:06.613Z,6.50
2022-12-20T07:39:34.688Z,6.50
2022-12-20T07:42:02.800Z,6.50
2022-12-20T07:44:30.934Z,6.50
2022-12-20T07:47:00.410Z,6.50
2022-12-20T07:49:28.511Z,6.50
2022-12-20T07:51:57.930Z,6.50
2022-12-20T07:54:27.855Z,6.50
2022-12-20T07:56:58.374Z,6.50
2022-12-20T07:59:28.326Z,6.50
2022-12-20T08:02:02.332Z,6.60
2022-12-20T08:04:34.322Z,6.60
2022-12-20T08:07:03.884Z,6.50
2022-12-20T08:09:32.930Z,6.50
2022-12-20T08:12:04.105Z,6.50
2022-12-20T08:14:41.011Z,6.50
2022-12-20T08:17:09.252Z,6.50
2022-12-20T08:19:39.192Z,6.50
2022-12-20T08:22:07.288Z,6.50
2022-12-20T08:24:35.581Z,6.50
2022-12-20T08:27:03.742Z,6.50
2022-12-20T08:29:31.870Z,6.60
2022-12-20T08:31:59.990Z,6.60
2022-12-20T08:34:28.156Z,6.60
2022-12-20T08:36:57.610Z,6.60
2022-12-20T08:39:25.701Z,6.50
2022-12-20T08:41:53.930Z,6.50
2022-12-20T08:44:22.095Z,6.50
2022-12-20T08:46:50.224Z,6.50
2022-12-20T08:49:18.310Z,6.50
2022-12-20T08:51:46.432Z,6.50
2022-12-20T08:54:15.933Z,6.50
2022-12-20T08:56:44.062Z,6.50
2022-12-20T08:59:12.291Z,6.50
2022-12-20T09:01:40.819Z,6.50
2022-12-20T09:04:10.909Z,6.50
2022-12-20T09:06:39.094Z,6.60
2022-12-20T09:09:07.905Z,6.50
2022-12-20T09:11:37.366Z,6.60
2022-12-20T09:14:05.425Z,6.60
2022-12-20T09:16:33.917Z,6.50
2022-12-20T09:19:05.681Z,6.50
2022-12-20T09:21:34.515Z,6.50
2022-12-20T09:24:02.712Z,6.50
2022-12-20T09:26:30.979Z,6.50
2022-12-20T09:29:02.101Z,6.50
2022-12-20T09:31:30.727Z,6.60
2022-12-20T09:33:59.374Z,6.60
2022-12-20T09:36:28.377Z,6.60
2022-12-20T09:38:56.620Z,6.60
2022-12-20T09:41:29.411Z,6.60
2022-12-20T09:43:58.521Z,6.60
2022-12-20T09:46:27.955Z,6.60
2022-12-20T09:48:57.373Z,6.60
2022-12-20T09:51:35.183Z,6.50
2022-12-20T09:54:07.633Z,6.50
2022-12-20T09:56:37.589Z,6.60
2022-12-20T09:59:06.515Z,6.60
2022-12-20T10:01:40.084Z,6.60
2022-12-20T10:04:13.710Z,6.60
2022-12-20T10:06:46.549Z,6.60
2022-12-20T10:09:17.900Z,6.60
2022-12-20T10:11:52.593Z,6.60
2022-12-20T10:14:38.992Z,6.60
2022-12-20T10:17:11.474Z,6.60
2022-12-20T10:19:51.724Z,6.60
2022-12-20T10:22:21.232Z,6.50
2022-12-20T10:24:52.744Z,6.60
2022-12-20T10:27:21.357Z,6.50
2022-12-20T10:29:50.258Z,6.60
2022-12-20T10:32:21.594Z,6.60
2022-12-20T10:34:53.277Z,6.60
2022-12-20T10:37:21.379Z,6.60
2022-12-20T10:39:50.195Z,6.60
2022-12-20T10:42:38.174Z,6.60
2022-12-20T10:45:07.445Z,6.60
2022-12-20T10:47:40.078Z,6.60
2022-12-20T10:50:15.735Z,6.60
2022-12-20T10:52:43.927Z,6.60
2022-12-20T10:55:34.924Z,6.60
2022-12-20T10:58:04.812Z,6.60
2022-12-20T11:00:32.935Z,6.60
2022-12-20T11:03:07.225Z,6.60
2022-12-20T11:05:35.575Z,6.60
2022-12-20T11:11:12.703Z,6.60
2022-12-20T11:13:40.999Z,6.60
2022-12-20T11:16:30.146Z,6.60
2022-12-20T11:19:07.186Z,6.70
2022-12-20T11:21:39.137Z,6.60
2022-12-20T11:24:12.064Z,6.60
2022-12-20T11:26:46.689Z,6.60
2022-12-20T11:29:23.548Z,6.60
2022-12-20T11:31:55.647Z,6.60
2022-12-20T11:34:30.674Z,6.60
2022-12-20T11:37:19.349Z,6.60
2022-12-20T11:40:08.082Z,6.60
2022-12-20T11:42:43.959Z,6.70
2022-12-20T11:45:16.020Z,6.70
2022-12-20T11:47:51.947Z,6.70
2022-12-20T11:50:42.493Z,6.70
2022-12-20T11:53:14.451Z,6.60
2022-12-20T11:55:46.123Z,6.60
2022-12-20T11:58:19.372Z,6.60
2022-12-20T12:00:54.084Z,6.60
2022-12-20T12:03:25.906Z,6.60
2022-12-20T12:05:56.627Z,6.60
2022-12-20T12:08:26.523Z,6.70
2022-12-20T12:10:57.603Z,6.70
2022-12-20T12:13:27.563Z,6.70
2022-12-20T12:15:58.469Z,6.70
2022-12-20T12:18:29.068Z,6.70
2022-12-20T12:21:08.254Z,6.70
2022-12-20T12:23:41.690Z,6.60
2022-12-20T12:26:13.387Z,6.60
2022-12-20T12:28:41.814Z,6.60
2022-12-20T12:31:12.951Z,6.60
2022-12-20T12:33:43.763Z,6.60
2022-12-20T12:36:29.389Z,6.70
2022-12-20T12:39:28.861Z,6.70
2022-12-20T12:42:10.470Z,6.70
2022-12-20T12:44:41.586Z,6.70
2022-12-20T12:47:15.918Z,6.70
2022-12-20T12:49:44.913Z,6.70
2022-12-20T12:52:33.809Z,6.70
2022-12-20T12:55:04.072Z,6.70
2022-12-20T12:57:32.373Z,6.60
2022-12-20T13:00:00.456Z,6.60
2022-12-20T13:02:52.617Z,6.60
2022-12-20T13:05:34.623Z,6.60
2022-12-20T13:08:04.714Z,6.60
2022-12-20T13:10:58.805Z,6.60
2022-12-20T13:13:26.955Z,6.60
2022-12-20T13:16:48.685Z,6.70
2022-12-20T13:19:17.869Z,6.70
2022-12-20T13:21:46.725Z,6.70
2022-12-20T13:24:53.194Z,6.70
2022-12-20T13:27:32.377Z,6.70
2022-12-20T13:30:30.627Z,6.70
2022-12-20T13:33:23.467Z,6.60
2022-12-20T13:35:59.932Z,6.60
2022-12-20T13:38:53.198Z,6.60
2022-12-20T13:41:42.745Z,6.70
2022-12-20T13:44:34.315Z,6.70
2022-12-20T13:47:07.479Z,6.70
2022-12-20T13:49:37.792Z,6.70
2022-12-20T13:52:14.967Z,6.70
2022-12-20T13:54:44.267Z,6.70
2022-12-20T13:57:16.777Z,6.70
2022-12-20T13:59:47.271Z,6.70
2022-12-20T14:02:20.807Z,6.70
2022-12-20T14:04:54.984Z,6.60
2022-12-20T14:07:23.370Z,6.60
2022-12-20T14:09:56.670Z,6.70
2022-12-20T14:12:31.344Z,6.70
2022-12-20T14:15:04.528Z,6.70
2022-12-20T14:17:33.508Z,6.70
2022-12-20T14:20:18.018Z,6.70
2022-12-20T14:22:51.447Z,6.70
2022-12-20T14:25:30.330Z,6.70
2022-12-20T14:27:59.751Z,6.70
2022-12-20T14:30:30.351Z,6.70
2022-12-20T14:32:58.450Z,6.70
2022-12-20T14:35:26.550Z,6.60
2022-12-20T14:37:56.091Z,6.70
2022-12-20T14:40:24.414Z,6.70
2022-12-20T14:42:52.613Z,6.70
2022-12-20T14:45:25.777Z,6.70
2022-12-20T14:48:01.867Z,6.70
2022-12-20T14:50:32.297Z,6.70
2022-12-20T14:53:00.379Z,6.70
2022-12-20T14:55:32.975Z,6.70
2022-12-20T14:58:01.009Z,6.80
2022-12-20T15:00:31.667Z,6.70
2022-12-20T15:03:04.374Z,6.70
2022-12-20T15:05:49.705Z,6.70
2022-12-20T15:08:20.431Z,6.70
2022-12-20T15:11:03.684Z,6.60
2022-12-20T15:13:33.556Z,6.60
2022-12-20T15:16:04.842Z,6.60
2022-12-20T15:18:33.338Z,6.70
2022-12-20T15:21:06.741Z,6.70
2022-12-20T15:23:34.841Z,6.70
2022-12-20T15:26:03.028Z,6.70
2022-12-20T15:28:31.110Z,6.70
2022-12-20T15:30:59.635Z,6.70
2022-12-20T15:33:31.089Z,6.70
2022-12-20T15:35:59.224Z,6.70
2022-12-20T15:39:03.635Z,6.70
2022-12-20T15:41:20.403Z,6.60
2022-12-20T15:43:48.766Z,6.70
2022-12-20T15:46:17.352Z,6.70
2022-12-20T15:48:46.877Z,6.70
2022-12-20T15:51:17.730Z,6.70
2022-12-20T15:53:45.866Z,6.70
2022-12-20T15:56:17.876Z,6.70
2022-12-20T15:58:47.519Z,6.70
2022-12-20T16:01:17.261Z,6.70
2022-12-20T16:03:47.372Z,6.70
2022-12-20T16:06:15.611Z,6.70
2022-12-20T16:08:43.836Z,6.70
2022-12-20T16:11:18.986Z,6.60
2022-12-20T16:13:47.319Z,6.60
2022-12-20T16:16:18.336Z,6.70
2022-12-20T16:18:47.986Z,6.70
2022-12-20T16:21:17.941Z,6.70
2022-12-20T16:23:46.301Z,6.70
2022-12-20T16:26:14.963Z,6.70
2022-12-20T16:28:43.335Z,6.70
2022-12-20T16:31:12.601Z,6.80
2022-12-20T16:33:41.231Z,6.70
2022-12-20T16:36:14.802Z,6.70
2022-12-20T16:38:50.356Z,6.70
2022-12-20T16:41:19.714Z,6.70
2022-12-20T16:43:48.345Z,6.70
2022-12-20T16:46:17.991Z,6.60
2022-12-20T16:48:49.244Z,6.70
2022-12-20T16:51:26.336Z,6.70
2022-12-20T16:54:17.994Z,6.70
2022-12-20T16:56:44.015Z,6.70
2022-12-20T16:59:22.515Z,6.70
2022-12-20T17:01:53.125Z,6.70
2022-12-20T17:04:21.775Z,6.80
2022-12-20T17:06:51.689Z,6.70
2022-12-20T17:09:20.346Z,6.70
2022-12-20T17:11:50.157Z,6.70
2022-12-20T17:14:20.073Z,6.70
2022-12-20T17:16:51.610Z,6.90
2022-12-20T17:19:19.939Z,7.30
2022-12-20T17:24:35.633Z,8.00
2022-12-20T17:27:04.341Z,8.50
2022-12-20T17:29:32.558Z,8.90
2022-12-20T17:34:30.255Z,9.60
2022-12-20T17:36:58.973Z,10.00
2022-12-20T17:39:27.316Z,10.30
2022-12-20T17:41:57.529Z,10.60
2022-12-20T17:44:27.305Z,10.80
2022-12-20T17:46:56.195Z,11.10
2022-12-20T17:51:53.289Z,11.50
2022-12-20T17:54:23.418Z,11.60
2022-12-20T17:56:52.195Z,11.80
2022-12-20T17:59:22.416Z,12.00
2022-12-20T18:01:50.749Z,12.10
2022-12-20T18:04:19.083Z,12.20
2022-12-20T18:06:47.405Z,12.40
2022-12-20T18:09:17.320Z,12.50
2022-12-20T18:11:45.853Z,12.60
2022-12-20T18:14:14.808Z,12.70
2022-12-20T18:16:44.592Z,12.80
2022-12-20T18:19:16.084Z,12.90
2022-12-20T18:21:45.112Z,13.00
2022-12-20T18:24:13.295Z,13.00
2022-12-20T18:26:42.046Z,13.10
2022-12-20T18:29:11.260Z,13.20
2022-12-20T18:31:39.504Z,13.30
2022-12-20T18:34:12.362Z,13.40
2022-12-20T18:36:40.522Z,13.50
2022-12-20T18:39:09.736Z,13.50
2022-12-20T18:41:37.978Z,13.60
2022-12-20T18:44:08.210Z,13.70
2022-12-20T18:46:36.603Z,13.80
2022-12-20T18:49:04.995Z,13.80
2022-12-20T18:51:36.675Z,13.90
2022-12-20T18:54:06.730Z,14.00
2022-12-20T18:56:36.213Z,14.00
2022-12-20T18:59:10.870Z,14.10
2022-12-20T19:01:40.245Z,14.10
2022-12-20T19:04:08.679Z,14.20
2022-12-20T19:06:38.211Z,14.20
2022-12-20T19:09:07.864Z,14.30
2022-12-20T19:11:36.007Z,14.40
2022-12-20T19:14:04.124Z,14.40
2022-12-20T19:16:32.959Z,14.50
2022-12-20T19:19:01.416Z,14.50
2022-12-20T19:21:31.107Z,14.60
2022-12-20T19:24:01.539Z,14.60
2022-12-20T19:26:29.845Z,14.70
2022-12-20T19:28:58.260Z,14.70
2022-12-20T19:31:27.385Z,14.70
2022-12-20T19:33:56.504Z,14.80
2022-12-20T19:36:26.032Z,14.80
2022-12-20T19:38:55.875Z,14.90
2022-12-20T19:41:26.145Z,15.00
2022-12-20T19:43:54.317Z,15.00
2022-12-20T19:46:29.287Z,15.10
2022-12-20T19:48:58.705Z,15.10
2022-12-20T19:51:27.200Z,15.20
2022-12-20T19:53:55.506Z,15.20
2022-12-20T19:56:26.318Z,15.20
2022-12-20T19:58:55.315Z,15.30
2022-12-20T20:01:25.825Z,15.30
2022-12-20T20:03:54.213Z,15.30
2022-12-20T20:06:22.600Z,15.40
2022-12-20T20:08:50.914Z,15.40
2022-12-20T20:11:19.166Z,15.40
2022-12-20T20:13:48.610Z,15.50
2022-12-20T20:16:21.816Z,15.50
2022-12-20T20:18:50.810Z,15.60
2022-12-20T20:21:21.458Z,15.60
2022-12-20T20:23:50.111Z,15.60
2022-12-20T20:26:19.516Z,15.70
2022-12-20T20:28:48.949Z,15.70
2022-12-20T20:31:18.773Z,15.80
2022-12-20T20:33:46.999Z,15.80
2022-12-20T20:36:15.713Z,15.80
2022-12-20T20:38:43.844Z,15.90
2022-12-20T20:41:11.846Z,15.90
2022-12-20T20:43:39.897Z,16.00
2022-12-20T20:46:10.256Z,16.00
2022-12-20T20:48:38.433Z,16.00
2022-12-20T20:51:06.805Z,16.10
2022-12-20T20:53:35.074Z,16.00
2022-12-20T20:56:03.171Z,16.10
2022-12-20T20:58:32.409Z,16.10
2022-12-20T21:01:01.556Z,16.20
2022-12-20T21:03:31.581Z,16.20
2022-12-20T21:08:47.851Z,15.80
2022-12-20T21:11:16.154Z,15.40
2022-12-20T21:13:44.453Z,15.10
2022-12-20T21:16:13.993Z,14.80
2022-12-20T21:18:43.488Z,14.50
2022-12-20T21:21:13.430Z,14.10
2022-12-20T21:23:44.531Z,13.80
2022-12-20T21:26:12.573Z,13.50
2022-12-20T21:28:41.646Z,13.20
2022-12-20T21:31:10.911Z,12.90
2022-12-20T21:36:10.196Z,12.50
2022-12-20T21:41:07.989Z,12.20
2022-12-20T21:46:04.585Z,11.70
2022-12-20T21:48:32.725Z,11.80
2022-12-20T21:51:01.459Z,11.70
2022-12-20T21:53:30.959Z,11.60
2022-12-20T21:55:59.364Z,11.50
2022-12-20T21:58:28.155Z,11.40
2022-12-20T22:00:56.499Z,11.30
2022-12-20T22:03:25.035Z,11.20
2022-12-20T22:05:53.973Z,11.20
2022-12-20T22:08:22.229Z,11.10
2022-12-20T22:10:58.562Z,11.10
2022-12-20T22:13:26.610Z,11.00
2022-12-20T22:15:54.736Z,11.00
2022-12-20T22:20:51.192Z,10.80
2022-12-20T22:23:19.225Z,10.70
2022-12-20T22:25:47.252Z,10.70
2022-12-20T22:28:16.656Z,10.60
2022-12-20T22:30:44.723Z,10.60
2022-12-20T22:33:12.774Z,10.60
2022-12-20T22:35:41.160Z,10.60
2022-12-20T22:38:09.216Z,10.50
2022-12-20T22:40:37.238Z,10.50
2022-12-20T22:43:05.238Z,10.50
2022-12-20T22:45:34.720Z,10.40
2022-12-20T22:48:02.749Z,10.40
2022-12-20T22:50:30.777Z,10.30
2022-12-20T22:55:27.444Z,10.30
2022-12-20T22:57:55.449Z,10.30
2022-12-20T23:00:23.665Z,10.20
2022-12-20T23:02:53.235Z,10.20
2022-12-20T23:05:21.339Z,10.20
2022-12-20T23:07:49.319Z,10.20
2022-12-20T23:10:33.094Z,10.20
2022-12-20T23:13:18.502Z,10.10
2022-12-20T23:15:47.926Z,10.00
2022-12-20T23:18:17.312Z,10.00
2022-12-20T23:21:07.697Z,10.00
2022-12-20T23:23:35.713Z,9.90
2022-12-20T23:26:11.423Z,9.90
2022-12-20T23:28:39.503Z,9.80
2022-12-20T23:31:07.937Z,9.90
2022-12-20T23:33:37.377Z,9.90
2022-12-20T23:36:06.682Z,9.90
2022-12-20T23:38:34.752Z,9.90
2022-12-20T23:41:02.796Z,9.90
2022-12-20T23:43:30.853Z,9.90
2022-12-20T23:46:03.811Z,9.90
2022-12-20T23:48:32.206Z,9.80
2022-12-20T23:51:01.599Z,9.80
2022-12-20T23:53:29.751Z,9.70
2022-12-20T23:55:59.504Z,9.70
2022-12-20T23:58:27.632Z,9.70
